Time;durP1;ratioP1;P1;durP2;ratioP2;P2;SDS_P1;SDS_P2;PMS_P1;PMS_P2;Temp;Humidity;BMP_temperature;BMP_pressure;BME280_temperature;BME280_humidity;BME280_pressure;Samples;Min_cycle;Max_cycle;Signal;HPM_P1;HPM_P2
2021/05/30 00:02:03;;;;;;;6.57;4.55;;;12.10;71.50;;;;;;4972956;28;20047;-87
2021/05/30 00:04:29;;;;;;;5.68;4.50;;;12.00;71.50;;;;;;4970099;28;20023;-89
2021/05/30 00:06:54;;;;;;;7.32;5.10;;;12.00;72.10;;;;;;4973011;28;20026;-87
2021/05/30 00:09:20;;;;;;;5.97;4.65;;;11.90;71.70;;;;;;4972163;28;20609;-89
2021/05/30 00:11:46;;;;;;;5.47;4.63;;;11.80;71.80;;;;;;4971188;28;20105;-88
2021/05/30 00:14:12;;;;;;;7.32;5.53;;;11.80;71.90;;;;;;4971837;28;20130;-90
2021/05/30 00:16:37;;;;;;;7.32;5.35;;;11.70;72.00;;;;;;4971787;28;20101;-90
2021/05/30 00:19:03;;;;;;;9.55;5.70;;;11.70;72.40;;;;;;4972801;28;20026;-89
2021/05/30 00:21:30;;;;;;;6.50;4.93;;;11.60;72.70;;;;;;4972113;28;20035;-90
2021/05/30 00:23:58;;;;;;;6.47;4.50;;;11.60;72.60;;;;;;4973029;28;20038;-90
2021/05/30 00:26:23;;;;;;;7.10;5.00;;;11.50;72.50;;;;;;4971751;28;20033;-89
2021/05/30 00:28:49;;;;;;;6.32;4.22;;;11.50;72.70;;;;;;4973228;28;20026;-90
2021/05/30 00:31:14;;;;;;;5.78;4.85;;;11.50;72.60;;;;;;4973574;28;20033;-91
2021/05/30 00:33:40;;;;;;;6.30;4.72;;;11.50;72.50;;;;;;4972324;28;20041;-90
2021/05/30 00:36:06;;;;;;;5.90;4.70;;;11.50;72.30;;;;;;4972778;28;20015;-90
2021/05/30 00:38:32;;;;;;;5.25;4.45;;;11.60;72.20;;;;;;4992411;28;20488;-91
2021/05/30 00:40:58;;;;;;;4.72;3.80;;;11.50;72.20;;;;;;4979377;28;20018;-89
2021/05/30 00:43:24;;;;;;;5.85;4.22;;;11.60;72.10;;;;;;4971819;28;20521;-90
2021/05/30 00:45:50;;;;;;;6.13;3.83;;;11.60;71.90;;;;;;4973027;28;20057;-90
2021/05/30 00:48:16;;;;;;;6.03;4.43;;;11.60;71.80;;;;;;4972278;28;20038;-88
2021/05/30 00:50:43;;;;;;;5.03;4.20;;;11.60;71.70;;;;;;4972475;28;20029;-90
2021/05/30 00:53:09;;;;;;;6.07;4.50;;;11.50;71.70;;;;;;4972499;28;20043;-90
2021/05/30 00:55:35;;;;;;;4.80;3.92;;;11.50;71.70;;;;;;4971382;28;20023;-88
2021/05/30 00:58:01;;;;;;;6.60;4.93;;;11.50;71.60;;;;;;4971238;28;20027;-89
2021/05/30 01:00:27;;;;;;;6.95;5.40;;;11.40;71.70;;;;;;4969828;28;20489;-88
2021/05/30 01:02:52;;;;;;;6.88;4.47;;;11.40;71.80;;;;;;4966312;28;20042;-86
2021/05/30 01:05:18;;;;;;;6.38;4.63;;;11.30;71.90;;;;;;4964712;28;20093;-87
2021/05/30 01:07:46;;;;;;;6.20;4.20;;;11.30;71.80;;;;;;4980172;28;20030;-89
2021/05/30 01:10:28;;;;;;;7.22;5.70;;;11.30;71.80;;;;;;4975905;28;20478;-89
2021/05/30 01:12:54;;;;;;;6.43;4.65;;;11.30;72.10;;;;;;4984131;28;20110;-89
2021/05/30 01:15:20;;;;;;;6.43;5.00;;;11.20;72.20;;;;;;4969176;28;20106;-89
2021/05/30 01:17:47;;;;;;;6.80;5.03;;;11.20;72.30;;;;;;4969584;28;20023;-88
2021/05/30 01:20:16;;;;;;;5.95;4.72;;;11.10;72.20;;;;;;4968964;28;20027;-89
2021/05/30 01:22:43;;;;;;;5.90;4.82;;;11.10;72.20;;;;;;4967390;28;20058;-89
2021/05/30 01:25:10;;;;;;;7.43;5.20;;;11.10;72.20;;;;;;4971831;28;20152;-89
2021/05/30 01:27:36;;;;;;;6.45;4.90;;;11.10;72.20;;;;;;4972064;28;20344;-90
2021/05/30 01:30:02;;;;;;;6.03;5.00;;;11.00;72.30;;;;;;4972758;28;20102;-90
2021/05/30 01:32:28;;;;;;;6.25;4.85;;;11.00;72.30;;;;;;4971423;28;20101;-90
2021/05/30 01:34:54;;;;;;;5.88;4.35;;;10.90;72.30;;;;;;4972096;28;20434;-92
2021/05/30 01:37:19;;;;;;;6.55;5.13;;;10.90;72.30;;;;;;4973580;28;20370;-91
2021/05/30 01:39:45;;;;;;;7.18;5.20;;;10.90;72.30;;;;;;4972958;28;20034;-91
2021/05/30 01:42:21;;;;;;;7.85;5.28;;;10.80;72.40;;;;;;4973391;28;20101;-91
2021/05/30 01:44:47;;;;;;;8.57;6.30;;;10.80;72.50;;;;;;4960200;28;20015;-91
2021/05/30 01:47:13;;;;;;;9.68;6.70;;;10.80;72.60;;;;;;4971357;28;20094;-90
2021/05/30 01:49:39;;;;;;;7.15;5.40;;;10.70;72.70;;;;;;4971420;28;20027;-91
2021/05/30 01:52:05;;;;;;;6.80;5.32;;;10.70;72.90;;;;;;4974707;28;20039;-91
2021/05/30 01:54:31;;;;;;;7.70;5.75;;;10.70;72.90;;;;;;4976825;28;20537;-90
2021/05/30 01:56:58;;;;;;;7.97;5.82;;;10.60;73.10;;;;;;4976690;28;20073;-89
2021/05/30 01:59:28;;;;;;;8.00;5.75;;;10.60;73.10;;;;;;4975177;28;20070;-87
2021/05/30 02:01:56;;;;;;;7.03;5.32;;;10.60;73.20;;;;;;4974689;28;20114;-88
2021/05/30 02:04:38;;;;;;;6.30;4.47;;;10.50;73.20;;;;;;4973048;28;20030;-88
2021/05/30 02:07:03;;;;;;;9.15;6.28;;;10.50;73.30;;;;;;4974898;28;20027;-88
2021/05/30 02:09:30;;;;;;;6.47;5.10;;;10.40;74.30;;;;;;4973409;28;20122;-88
2021/05/30 02:11:56;;;;;;;6.75;5.13;;;10.40;73.80;;;;;;4974830;28;20061;-87
2021/05/30 02:14:21;;;;;;;10.15;7.82;;;10.40;73.70;;;;;;4974241;28;20031;-87
2021/05/30 02:16:48;;;;;;;9.45;6.47;;;10.40;74.10;;;;;;4974754;28;20093;-88
2021/05/30 02:19:14;;;;;;;5.57;3.92;;;10.40;74.10;;;;;;4974487;28;20034;-88
2021/05/30 02:21:48;;;;;;;7.25;5.57;;;10.40;74.00;;;;;;4974712;28;20030;-88
2021/05/30 02:24:14;;;;;;;7.20;5.50;;;10.40;73.90;;;;;;4975025;28;20085;-88
2021/05/30 02:26:41;;;;;;;8.23;5.43;;;10.40;73.80;;;;;;4974386;28;20081;-88
2021/05/30 02:29:08;;;;;;;9.35;5.72;;;10.40;73.70;;;;;;4972471;28;20085;-88
2021/05/30 02:31:34;;;;;;;7.15;5.25;;;10.40;73.50;;;;;;4973522;28;20209;-87
2021/05/30 02:34:00;;;;;;;8.85;5.68;;;10.50;73.50;;;;;;4973906;28;20023;-88
2021/05/30 02:36:27;;;;;;;7.50;5.38;;;10.40;73.40;;;;;;4972835;28;20142;-87
2021/05/30 02:38:54;;;;;;;7.32;5.32;;;10.40;73.30;;;;;;4971506;28;20038;-88
2021/05/30 02:41:19;;;;;;;7.88;5.18;;;10.40;73.20;;;;;;4973337;28;20041;-88
2021/05/30 02:43:47;;;;;;;9.32;7.18;;;10.40;73.10;;;;;;4973423;28;20038;-86
2021/05/30 02:46:12;;;;;;;8.23;5.95;;;10.30;73.50;;;;;;4971977;28;20027;-86
2021/05/30 02:48:38;;;;;;;6.35;4.32;;;10.30;73.80;;;;;;4968827;28;20548;-86
2021/05/30 02:51:04;;;;;;;6.35;5.25;;;10.30;73.70;;;;;;4972273;28;20453;-86
2021/05/30 02:53:32;;;;;;;8.60;6.22;;;10.30;73.80;;;;;;4973450;28;20031;-88
2021/05/30 02:55:59;;;;;;;7.40;5.28;;;10.30;73.80;;;;;;4974485;28;20027;-87
2021/05/30 02:58:26;;;;;;;8.18;5.22;;;10.20;73.70;;;;;;4974114;28;20081;-88
2021/05/30 03:00:51;;;;;;;8.02;5.95;;;10.20;73.60;;;;;;4975306;28;20042;-88
2021/05/30 03:03:17;;;;;;;8.55;5.32;;;10.30;73.60;;;;;;4972930;28;20498;-88
2021/05/30 03:05:43;;;;;;;7.97;5.13;;;10.20;73.60;;;;;;4973129;28;20512;-90
2021/05/30 03:08:08;;;;;;;9.43;5.35;;;10.20;73.70;;;;;;4974133;28;20061;-89
2021/05/30 03:10:34;;;;;;;8.38;5.80;;;10.20;73.80;;;;;;4979191;28;20116;-89
2021/05/30 03:13:00;;;;;;;7.45;5.18;;;10.10;73.70;;;;;;4977999;28;20469;-87
2021/05/30 03:15:26;;;;;;;7.10;5.10;;;10.20;73.80;;;;;;4972864;28;20034;-87
2021/05/30 03:17:52;;;;;;;7.85;6.20;;;10.20;73.70;;;;;;4974585;28;20058;-90
2021/05/30 03:20:17;;;;;;;7.95;5.72;;;10.10;73.80;;;;;;4974352;28;20050;-90
2021/05/30 03:22:43;;;;;;;7.55;5.65;;;10.10;73.90;;;;;;4974912;28;20039;-90
2021/05/30 03:25:10;;;;;;;9.70;6.65;;;10.00;74.10;;;;;;4972969;28;20027;-89
2021/05/30 03:27:35;;;;;;;10.35;6.97;;;10.00;74.60;;;;;;4973252;28;20390;-89
2021/05/30 03:30:01;;;;;;;8.38;5.97;;;10.00;75.20;;;;;;4973479;28;20023;-89
2021/05/30 03:32:27;;;;;;;9.52;7.18;;;9.90;75.10;;;;;;4972326;28;20058;-89
2021/05/30 03:34:52;;;;;;;7.80;5.63;;;9.90;75.10;;;;;;4973512;28;20023;-90
2021/05/30 03:37:18;;;;;;;8.75;5.38;;;10.00;75.00;;;;;;4973335;28;20101;-89
2021/05/30 03:39:45;;;;;;;5.60;4.63;;;9.90;74.80;;;;;;4974047;28;20050;-90
2021/05/30 03:42:20;;;;;;;8.60;6.30;;;10.00;74.60;;;;;;4974489;28;20057;-88
2021/05/30 03:44:46;;;;;;;8.45;6.15;;;9.90;74.70;;;;;;4974942;28;20037;-89
2021/05/30 03:47:13;;;;;;;7.63;5.82;;;9.90;74.70;;;;;;4973396;28;20035;-88
2021/05/30 03:49:42;;;;;;;7.80;5.68;;;10.00;74.80;;;;;;4972385;28;20023;-89
2021/05/30 03:52:09;;;;;;;8.43;5.95;;;9.90;74.60;;;;;;4973360;28;20022;-88
2021/05/30 03:54:35;;;;;;;7.85;6.00;;;10.00;74.70;;;;;;4971694;28;20027;-87
2021/05/30 03:57:01;;;;;;;8.70;5.50;;;9.90;75.00;;;;;;4971685;28;20077;-87
2021/05/30 03:59:26;;;;;;;8.73;5.80;;;9.90;75.10;;;;;;4972360;28;20121;-88
2021/05/30 04:01:52;;;;;;;7.65;5.53;;;10.00;75.10;;;;;;4973985;28;20097;-90
2021/05/30 04:04:18;;;;;;;7.28;5.45;;;10.00;75.00;;;;;;4972790;28;20390;-88
2021/05/30 04:06:43;;;;;;;9.25;6.05;;;10.00;75.00;;;;;;4972790;28;20033;-89
2021/05/30 04:09:09;;;;;;;9.57;6.00;;;10.00;74.90;;;;;;4980468;28;20626;-90
2021/05/30 04:11:34;;;;;;;7.35;5.60;;;10.10;74.90;;;;;;4980824;28;20109;-89
2021/05/30 04:14:00;;;;;;;7.18;5.70;;;10.10;74.80;;;;;;4969727;28;20497;-88
2021/05/30 04:16:26;;;;;;;10.25;6.47;;;10.10;74.60;;;;;;4972932;28;20035;-90
2021/05/30 04:18:51;;;;;;;13.57;8.18;;;10.10;74.60;;;;;;4972782;28;20037;-91
2021/05/30 04:21:17;;;;;;;8.02;5.55;;;10.10;74.80;;;;;;4974016;28;20358;-89
2021/05/30 04:23:43;;;;;;;8.65;6.05;;;10.10;74.80;;;;;;4972361;28;20734;-90
2021/05/30 04:26:08;;;;;;;8.95;6.60;;;10.10;74.80;;;;;;4972417;28;20062;-88
2021/05/30 04:28:34;;;;;;;9.93;6.47;;;10.10;75.50;;;;;;4971910;28;20075;-88
2021/05/30 04:31:00;;;;;;;8.13;5.88;;;10.20;74.70;;;;;;4973188;28;20035;-90
2021/05/30 04:33:26;;;;;;;7.97;5.95;;;10.20;74.60;;;;;;4971206;28;20316;-90
2021/05/30 04:35:51;;;;;;;7.15;5.57;;;10.20;74.50;;;;;;4972578;28;20034;-88
2021/05/30 04:38:20;;;;;;;9.95;7.10;;;10.30;74.50;;;;;;4971631;28;20027;-88
2021/05/30 04:40:47;;;;;;;8.82;6.13;;;10.30;74.50;;;;;;4971006;28;20031;-89
2021/05/30 04:43:12;;;;;;;7.28;5.65;;;10.30;74.50;;;;;;4977040;28;20031;-88
2021/05/30 04:45:38;;;;;;;8.05;6.13;;;10.40;74.40;;;;;;4971790;28;20026;-89
2021/05/30 04:48:04;;;;;;;6.20;5.13;;;10.40;74.20;;;;;;4971992;28;20019;-88
2021/05/30 04:50:30;;;;;;;10.38;5.78;;;10.50;74.20;;;;;;4971017;28;20097;-88
2021/05/30 04:52:56;;;;;;;8.10;6.20;;;10.50;74.10;;;;;;4971989;28;20109;-88
2021/05/30 04:55:22;;;;;;;6.32;4.95;;;10.60;74.10;;;;;;4963728;28;20066;-89
2021/05/30 04:57:47;;;;;;;6.65;4.50;;;11.20;73.70;;;;;;4971624;28;20485;-88
2021/05/30 05:00:15;;;;;;;8.63;5.93;;;12.00;71.60;;;;;;4967256;28;20408;-88
2021/05/30 05:02:41;;;;;;;7.18;6.00;;;12.80;69.20;;;;;;4967628;28;20679;-88
2021/05/30 05:05:10;;;;;;;7.75;5.82;;;13.40;67.20;;;;;;4970821;28;20022;-87
2021/05/30 05:07:35;;;;;;;6.78;5.38;;;14.00;65.60;;;;;;4968951;28;20035;-86
2021/05/30 05:10:01;;;;;;;7.13;5.07;;;14.50;64.00;;;;;;4971135;28;20027;-86
2021/05/30 05:12:27;;;;;;;8.57;5.03;;;15.10;62.60;;;;;;4971828;28;20023;-88
2021/05/30 05:14:52;;;;;;;5.43;4.15;;;15.50;61.40;;;;;;4970407;28;20058;-88
2021/05/30 05:17:18;;;;;;;6.10;4.70;;;15.90;60.40;;;;;;4970823;28;20046;-89
2021/05/30 05:19:43;;;;;;;8.15;5.72;;;16.20;59.60;;;;;;4963775;28;20022;-88
2021/05/30 05:22:09;;;;;;;8.15;5.72;;;16.40;59.00;;;;;;4966666;28;20574;-89
2021/05/30 05:24:35;;;;;;;6.65;4.97;;;16.70;58.40;;;;;;4970463;28;20042;-89
2021/05/30 05:27:00;;;;;;;7.07;5.07;;;17.00;57.90;;;;;;4970388;28;20034;-90
2021/05/30 05:29:26;;;;;;;7.57;5.30;;;17.10;57.60;;;;;;4971919;28;20478;-91
2021/05/30 05:31:51;;;;;;;7.68;5.50;;;17.50;57.00;;;;;;4971790;28;20398;-87
2021/05/30 05:34:17;;;;;;;6.70;4.70;;;17.50;56.70;;;;;;4970528;28;20670;-89
2021/05/30 05:36:42;;;;;;;7.00;4.65;;;17.70;56.60;;;;;;4972625;28;20030;-90
2021/05/30 05:39:08;;;;;;;6.22;5.20;;;17.90;56.40;;;;;;4972751;28;20511;-88
2021/05/30 05:41:33;;;;;;;6.53;5.30;;;18.00;56.20;;;;;;4972718;28;20115;-88
2021/05/30 05:43:59;;;;;;;10.68;7.72;;;18.10;56.00;;;;;;4970654;28;20035;-88
2021/05/30 05:46:26;;;;;;;7.22;5.65;;;17.60;56.00;;;;;;4961607;28;20225;-89
2021/05/30 05:48:52;;;;;;;6.93;5.20;;;17.80;56.70;;;;;;4960328;28;20019;-89
2021/05/30 05:51:19;;;;;;;6.13;4.68;;;18.10;56.30;;;;;;4971853;28;20390;-90
2021/05/30 05:53:46;;;;;;;6.57;5.18;;;18.50;55.80;;;;;;4971628;28;20027;-88
2021/05/30 05:56:12;;;;;;;6.95;5.55;;;18.80;55.40;;;;;;4970625;28;20027;-91
2021/05/30 05:58:37;;;;;;;8.07;5.93;;;18.80;55.10;;;;;;4969851;28;20027;-89
2021/05/30 06:01:03;;;;;;;7.28;5.05;;;18.80;55.00;;;;;;4972739;28;20115;-90
2021/05/30 06:03:29;;;;;;;8.57;6.47;;;18.80;55.30;;;;;;4970171;28;20065;-88
2021/05/30 06:05:56;;;;;;;10.05;7.70;;;18.70;55.60;;;;;;4971751;28;20139;-92
2021/05/30 06:08:21;;;;;;;6.88;5.70;;;18.10;55.70;;;;;;4977479;28;20037;-94
2021/05/30 06:10:54;;;;;;;8.93;6.28;;;17.90;57.20;;;;;;4973250;28;20031;-92
2021/05/30 06:13:20;;;;;;;10.00;6.47;;;17.90;57.90;;;;;;4972500;28;20461;-91
2021/05/30 06:15:45;;;;;;;6.97;4.82;;;17.80;58.00;;;;;;4970719;28;20033;-93
2021/05/30 06:18:12;;;;;;;9.30;6.72;;;17.60;58.40;;;;;;4972087;28;20037;-92
2021/05/30 06:20:39;;;;;;;9.38;6.28;;;17.50;58.90;;;;;;4972099;28;20074;-93
2021/05/30 06:23:05;;;;;;;8.50;7.00;;;17.40;59.00;;;;;;4971763;28;20362;-93
2021/05/30 06:25:31;;;;;;;8.23;6.57;;;17.20;59.10;;;;;;4975613;28;20015;-91
2021/05/30 06:27:58;;;;;;;8.90;6.78;;;17.00;59.70;;;;;;4956380;28;20070;-92
2021/05/30 06:30:24;;;;;;;8.80;7.32;;;16.80;60.00;;;;;;4970108;28;20026;-90
2021/05/30 06:32:57;;;;;;;9.77;7.13;;;16.70;59.70;;;;;;4969526;28;20030;-91
2021/05/30 06:35:22;;;;;;;;;;;16.50;60.60;;;;;;4971746;28;20057;-92
2021/05/30 06:37:48;;;;;;;7.93;6.75;;;16.40;60.80;;;;;;4971650;28;19941;-92
2021/05/30 06:40:15;;;;;;;9.07;7.05;;;16.20;61.10;;;;;;4977099;28;20019;-96
2021/05/30 06:42:41;;;;;;;9.77;7.43;;;16.10;61.30;;;;;;4975852;28;20034;-94
2021/05/30 06:45:07;;;;;;;10.68;7.63;;;16.30;61.60;;;;;;4978655;28;20090;-92
2021/05/30 06:47:33;;;;;;;13.40;9.18;;;16.40;61.40;;;;;;4973730;28;20027;-94
2021/05/30 06:49:59;;;;;;;9.35;7.57;;;16.30;61.60;;;;;;4978106;28;20524;-95
2021/05/30 06:52:24;;;;;;;12.15;8.25;;;16.20;61.40;;;;;;4976563;28;20472;-95
2021/05/30 06:54:53;;;;;;;9.55;6.93;;;16.30;61.50;;;;;;4976541;28;20035;-95
2021/05/30 06:57:19;;;;;;;9.15;7.22;;;16.40;61.40;;;;;;4979680;28;20018;-94
2021/05/30 06:59:47;;;;;;;9.15;6.72;;;16.50;61.20;;;;;;4987082;28;20501;-94
2021/05/30 07:02:14;;;;;;;9.98;7.30;;;16.70;60.80;;;;;;4979287;28;20022;-95
2021/05/30 07:04:39;;;;;;;8.25;6.60;;;16.90;60.20;;;;;;4978539;28;20054;-95
2021/05/30 07:07:05;;;;;;;9.90;6.70;;;17.00;60.10;;;;;;4976090;28;20121;-95
2021/05/30 07:09:31;;;;;;;11.65;8.80;;;17.00;59.30;;;;;;4975237;28;20118;-94
2021/05/30 07:11:56;;;;;;;8.27;6.70;;;16.80;59.20;;;;;;4974937;28;20074;-95
2021/05/30 07:14:22;;;;;;;7.90;6.50;;;16.80;59.60;;;;;;4974043;28;20580;-94
2021/05/30 07:16:47;;;;;;;8.25;5.85;;;16.90;59.70;;;;;;4975496;28;20041;-93
2021/05/30 07:19:13;;;;;;;9.50;7.00;;;17.20;59.50;;;;;;4975587;28;20061;-96
2021/05/30 07:21:38;;;;;;;11.73;8.27;;;17.40;59.00;;;;;;4977272;28;20027;-93
2021/05/30 07:24:05;;;;;;;8.32;6.20;;;17.40;58.30;;;;;;4975198;28;20089;-91
2021/05/30 07:26:31;;;;;;;10.57;7.53;;;17.40;58.30;;;;;;4975464;28;20019;-96
2021/05/30 07:28:57;;;;;;;9.63;7.10;;;17.50;58.10;;;;;;4967814;28;20033;-95
2021/05/30 07:31:22;;;;;;;8.45;7.00;;;17.60;57.90;;;;;;4976375;28;20058;-95
2021/05/30 07:33:48;;;;;;;8.57;7.05;;;17.40;57.60;;;;;;4975189;28;20061;-91
2021/05/30 07:36:14;;;;;;;6.38;5.05;;;17.30;57.50;;;;;;4973142;28;20065;-90
2021/05/30 07:38:40;;;;;;;13.23;11.05;;;17.40;58.10;;;;;;4975128;28;20500;-93
2021/05/30 07:41:05;;;;;;;11.02;8.73;;;17.50;57.90;;;;;;4975529;28;20664;-94
2021/05/30 07:43:31;;;;;;;8.68;7.30;;;17.70;57.90;;;;;;4974483;28;20106;-93
2021/05/30 07:45:57;;;;;;;10.00;7.50;;;17.80;57.50;;;;;;4958375;28;20026;-94
2021/05/30 07:48:23;;;;;;;7.55;5.80;;;17.80;56.60;;;;;;4972831;28;20019;-94
2021/05/30 07:50:49;;;;;;;8.63;6.85;;;17.90;57.10;;;;;;4972459;28;20557;-91
2021/05/30 07:53:15;;;;;;;9.10;7.13;;;17.90;56.70;;;;;;4969652;28;20026;-93
2021/05/30 07:55:42;;;;;;;10.23;7.30;;;17.90;57.00;;;;;;4970984;28;20106;-90
2021/05/30 07:58:07;;;;;;;9.95;6.90;;;17.80;56.80;;;;;;4972996;28;20026;-92
2021/05/30 08:00:33;;;;;;;10.80;8.43;;;17.90;56.60;;;;;;4970388;28;20021;-93
2021/05/30 08:02:58;;;;;;;8.70;7.10;;;17.60;55.70;;;;;;4973197;28;20665;-93
2021/05/30 08:05:24;;;;;;;8.43;6.53;;;17.50;56.70;;;;;;4972845;28;20110;-90
2021/05/30 08:07:51;;;;;;;8.18;6.57;;;17.60;57.40;;;;;;4965931;28;20030;-93
2021/05/30 08:10:18;;;;;;;6.80;5.72;;;17.80;57.30;;;;;;4985895;28;20030;-91
2021/05/30 08:12:44;;;;;;;6.45;4.97;;;18.00;57.10;;;;;;4973210;28;20035;-92
2021/05/30 08:15:11;;;;;;;8.38;5.93;;;18.30;57.00;;;;;;4974132;28;20099;-91
2021/05/30 08:17:38;;;;;;;7.15;5.55;;;18.50;56.50;;;;;;4971035;28;20023;-92
2021/05/30 08:20:06;;;;;;;7.38;5.00;;;18.60;56.20;;;;;;4969541;28;20022;-91
2021/05/30 08:22:32;;;;;;;7.18;5.57;;;18.70;56.00;;;;;;4971859;28;20034;-92
2021/05/30 08:24:57;;;;;;;7.25;5.95;;;18.80;55.70;;;;;;4973094;28;20022;-91
2021/05/30 08:27:23;;;;;;;9.45;6.85;;;18.90;55.70;;;;;;4973191;28;20551;-92
2021/05/30 08:29:49;;;;;;;9.70;7.15;;;18.80;55.40;;;;;;4973484;28;20022;-91
2021/05/30 08:32:16;;;;;;;5.43;4.30;;;18.70;55.20;;;;;;4975158;28;20437;-91
2021/05/30 08:34:54;;;;;;;9.23;6.55;;;18.90;55.60;;;;;;4967517;28;20031;-91
2021/05/30 08:37:21;;;;;;;6.55;4.13;;;18.90;55.30;;;;;;4968486;28;20038;-91
2021/05/30 08:39:48;;;;;;;5.70;4.45;;;19.00;55.60;;;;;;4973454;28;20026;-91
2021/05/30 08:42:19;;;;;;;7.13;5.50;;;19.20;55.30;;;;;;4972356;28;20031;-92
2021/05/30 08:44:47;;;;;;;9.85;6.65;;;19.40;54.60;;;;;;4973122;28;20441;-91
2021/05/30 08:47:12;;;;;;;7.28;5.50;;;19.40;54.50;;;;;;4972242;28;20030;-92
2021/05/30 08:49:38;;;;;;;8.07;6.28;;;19.50;54.50;;;;;;4972308;28;20039;-93
2021/05/30 08:52:04;;;;;;;5.50;4.15;;;19.50;54.30;;;;;;4972532;28;20429;-93
2021/05/30 08:54:31;;;;;;;7.72;5.72;;;19.70;54.40;;;;;;4970793;28;20031;-93
2021/05/30 08:56:58;;;;;;;5.57;4.72;;;19.90;54.50;;;;;;4972871;28;20027;-93
2021/05/30 08:59:30;;;;;;;5.88;4.40;;;20.00;53.80;;;;;;4969134;28;20027;-91
2021/05/30 09:01:57;;;;;;;7.55;5.13;;;20.10;53.70;;;;;;4970183;28;20517;-91
2021/05/30 09:04:56;;;;;;;6.32;5.20;;;20.20;53.50;;;;;;4970412;28;20031;-95
2021/05/30 09:07:37;;;;;;;6.18;4.68;;;20.40;52.90;;;;;;4959036;28;20026;-92
2021/05/30 09:10:15;;;;;;;6.65;4.72;;;20.30;52.50;;;;;;4985857;28;20030;-93
2021/05/30 09:12:41;;;;;;;7.30;5.60;;;20.20;51.20;;;;;;4970048;28;20035;-86
2021/05/30 09:15:12;;;;;;;5.70;4.40;;;20.00;51.10;;;;;;4966326;28;20027;-90
2021/05/30 09:17:42;;;;;;;5.68;4.40;;;19.80;51.40;;;;;;4971514;28;20496;-92
2021/05/30 09:20:10;;;;;;;6.47;4.68;;;19.80;51.80;;;;;;4971968;28;20030;-95
2021/05/30 09:22:42;;;;;;;5.93;4.30;;;19.90;51.50;;;;;;4973060;28;20561;-95
2021/05/30 09:25:19;;;;;;;4.75;3.95;;;19.70;51.30;;;;;;4972400;28;20027;-94
2021/05/30 09:27:48;;;;;;;5.13;3.63;;;19.60;50.10;;;;;;4971730;28;20031;-91
2021/05/30 09:30:27;;;;;;;5.57;4.03;;;19.40;49.50;;;;;;4961205;28;20110;-91
2021/05/30 09:33:29;;;;;;;5.65;3.75;;;19.40;50.20;;;;;;4970414;28;20046;-91
2021/05/30 09:35:57;;;;;;;6.28;3.30;;;19.40;48.60;;;;;;4939867;28;20027;-90
2021/05/30 09:38:29;;;;;;;2.92;2.30;;;19.40;49.70;;;;;;4964948;28;20035;-89
2021/05/30 09:41:03;;;;;;;4.53;2.90;;;19.50;49.80;;;;;;4971086;28;20054;-91
2021/05/30 09:43:46;;;;;;;4.68;3.30;;;19.70;49.40;;;;;;4966198;28;20031;-88
2021/05/30 09:46:23;;;;;;;6.82;4.22;;;19.90;49.20;;;;;;4972823;28;20038;-89
2021/05/30 09:48:49;;;;;;;6.07;4.18;;;19.80;49.10;;;;;;4991232;28;20470;-88
2021/05/30 09:51:31;;;;;;;4.90;3.75;;;19.70;48.90;;;;;;4970862;28;20057;-88
2021/05/30 09:54:04;;;;;;;5.40;3.38;;;19.70;49.40;;;;;;4972085;28;20698;-93
2021/05/30 09:56:36;;;;;;;5.32;3.70;;;19.70;49.30;;;;;;4970820;28;20027;-93
2021/05/30 09:59:05;;;;;;;5.25;3.63;;;19.90;49.20;;;;;;4971124;28;20022;-93
2021/05/30 10:01:51;;;;;;;4.07;3.30;;;20.20;49.50;;;;;;4972132;28;20248;-93
2021/05/30 10:04:17;;;;;;;4.97;3.78;;;20.40;49.10;;;;;;4971979;28;20027;-92
2021/05/30 10:06:43;;;;;;;6.45;5.07;;;20.50;48.80;;;;;;4972037;28;20051;-91
2021/05/30 10:09:11;;;;;;;5.07;3.60;;;20.70;48.20;;;;;;4971273;28;20038;-92
2021/05/30 10:11:38;;;;;;;5.30;4.05;;;20.80;47.90;;;;;;4973332;28;20105;-92
2021/05/30 10:14:05;;;;;;;4.70;4.05;;;21.00;47.80;;;;;;4976136;28;20023;-92
2021/05/30 10:16:32;;;;;;;6.13;4.07;;;21.00;47.00;;;;;;4975739;28;20364;-93
2021/05/30 10:19:12;;;;;;;3.97;2.92;;;21.00;47.20;;;;;;4974848;28;20015;-93
2021/05/30 10:21:45;;;;;;;4.47;3.20;;;21.30;47.30;;;;;;4974109;28;20031;-87
2021/05/30 10:24:12;;;;;;;3.78;3.30;;;21.40;46.90;;;;;;4979560;28;20030;-92
2021/05/30 10:26:38;;;;;;;5.63;4.47;;;21.60;46.60;;;;;;4977046;28;20023;-91
2021/05/30 10:29:13;;;;;;;3.40;3.00;;;21.60;45.20;;;;;;4974737;28;20539;-92
2021/05/30 10:31:40;;;;;;;5.15;4.15;;;21.50;46.60;;;;;;4977112;28;20090;-90
2021/05/30 10:34:09;;;;;;;4.93;3.97;;;21.60;47.00;;;;;;4975014;28;20026;-92
2021/05/30 10:36:36;;;;;;;5.40;3.70;;;21.60;47.20;;;;;;4975593;28;20394;-92
2021/05/30 10:39:13;;;;;;;3.70;2.90;;;21.60;46.40;;;;;;4976347;28;20023;-92
2021/05/30 10:41:39;;;;;;;4.53;3.28;;;21.60;46.60;;;;;;4975513;28;20569;-91
2021/05/30 10:44:07;;;;;;;5.43;4.15;;;21.90;46.20;;;;;;4974160;28;20031;-92
2021/05/30 10:46:49;;;;;;;5.22;4.30;;;21.90;44.90;;;;;;4972639;28;20047;-92
2021/05/30 10:49:14;;;;;;;4.23;3.30;;;21.60;43.10;;;;;;4972000;28;20018;-92
2021/05/30 10:51:49;;;;;;;4.38;3.40;;;21.60;44.00;;;;;;4985491;28;20041;-93
2021/05/30 10:54:14;;;;;;;4.00;3.00;;;21.40;44.10;;;;;;4975459;28;20029;-94
2021/05/30 10:56:55;;;;;;;3.85;2.85;;;21.60;44.90;;;;;;4975111;28;20046;-92
2021/05/30 10:59:23;;;;;;;4.28;3.03;;;21.80;45.00;;;;;;4975276;28;20027;-93
2021/05/30 11:01:50;;;;;;;3.70;2.70;;;21.80;42.90;;;;;;4968134;28;20026;-89
2021/05/30 11:04:28;;;;;;;2.80;2.13;;;21.70;43.10;;;;;;4993694;28;20066;-90
2021/05/30 11:07:01;;;;;;;2.92;2.10;;;22.00;43.30;;;;;;4971295;28;20125;-91
2021/05/30 11:09:54;;;;;;;3.83;3.28;;;22.20;42.10;;;;;;4975885;28;20034;-91
2021/05/30 11:12:21;;;;;;;3.03;2.42;;;22.20;41.30;;;;;;4971979;28;20027;-92
2021/05/30 11:15:10;;;;;;;3.13;2.80;;;22.20;41.80;;;;;;4974803;28;20034;-92
2021/05/30 11:17:57;;;;;;;5.97;3.45;;;22.30;41.80;;;;;;4970472;28;20034;-92
2021/05/30 11:20:26;;;;;;;2.95;2.42;;;22.20;41.90;;;;;;4972367;28;20042;-92
2021/05/30 11:23:03;;;;;;;1.58;1.48;;;22.20;42.00;;;;;;4986896;28;20047;-93
2021/05/30 11:25:33;;;;;;;4.55;2.95;;;22.60;42.20;;;;;;4965225;28;20049;-93
2021/05/30 11:28:04;;;;;;;4.35;2.80;;;22.30;38.80;;;;;;4973414;28;20034;-93
2021/05/30 11:30:44;;;;;;;2.13;1.98;;;22.20;39.50;;;;;;4963712;28;20041;-93
2021/05/30 11:33:26;;;;;;;2.33;1.70;;;22.20;39.80;;;;;;4956697;28;20036;-92
2021/05/30 11:35:53;;;;;;;;;;;22.20;39.50;;;;;;4963621;28;20019;-92
2021/05/30 11:38:30;;;;;;;3.00;2.20;;;22.20;40.00;;;;;;4987722;28;19932;-93
2021/05/30 11:41:10;;;;;;;2.65;2.30;;;22.30;39.90;;;;;;4974080;28;20410;-93
2021/05/30 11:43:36;;;;;;;3.95;2.75;;;22.60;40.80;;;;;;4974551;28;20422;-92
2021/05/30 11:46:11;;;;;;;3.35;2.63;;;22.40;38.60;;;;;;4970194;28;20058;-93
2021/05/30 11:48:36;;;;;;;3.45;2.42;;;22.40;39.30;;;;;;4959837;28;20037;-91
2021/05/30 11:51:02;;;;;;;1.92;1.67;;;22.50;39.90;;;;;;4963708;28;20034;-92
2021/05/30 11:53:36;;;;;;;2.95;2.25;;;22.90;40.50;;;;;;4976420;28;20063;-90
2021/05/30 11:56:05;;;;;;;3.08;2.47;;;23.10;40.10;;;;;;4974793;28;20489;-90
2021/05/30 11:58:31;;;;;;;2.65;2.38;;;23.20;39.10;;;;;;4973773;28;20026;-90
2021/05/30 12:01:02;;;;;;;3.17;2.40;;;23.10;38.60;;;;;;4965153;28;20027;-90
2021/05/30 12:03:28;;;;;;;2.38;1.98;;;23.00;38.60;;;;;;4975370;28;20026;-92
2021/05/30 12:06:02;;;;;;;2.55;1.85;;;23.00;38.20;;;;;;4977292;28;20090;-90
2021/05/30 12:08:28;;;;;;;1.98;1.40;;;23.10;38.10;;;;;;4964615;28;20037;-91
2021/05/30 12:11:02;;;;;;;1.73;1.60;;;23.30;38.30;;;;;;4976045;28;20066;-89
2021/05/30 12:13:36;;;;;;;2.25;1.80;;;23.30;36.60;;;;;;4960934;28;20030;-91
2021/05/30 12:16:16;;;;;;;1.35;1.25;;;23.20;35.80;;;;;;4960442;28;20110;-91
2021/05/30 12:18:50;;;;;;;1.70;1.30;;;23.30;36.20;;;;;;4955331;28;20027;-91
2021/05/30 12:21:17;;;;;;;1.98;1.58;;;23.70;36.30;;;;;;4970442;28;20034;-92
2021/05/30 12:23:42;;;;;;;2.15;1.77;;;24.00;35.40;;;;;;4974744;28;20062;-92
2021/05/30 12:26:11;;;;;;;3.00;2.22;;;23.90;34.80;;;;;;4974740;28;20441;-91
2021/05/30 12:28:39;;;;;;;1.98;1.50;;;23.80;35.60;;;;;;4975184;28;20022;-89
2021/05/30 12:31:10;;;;;;;1.30;1.20;;;23.80;36.10;;;;;;4976528;28;20109;-91
2021/05/30 12:33:58;;;;;;;2.53;1.80;;;24.10;36.40;;;;;;4975587;28;20027;-91
2021/05/30 12:36:32;;;;;;;2.20;1.77;;;24.00;34.80;;;;;;4973549;28;20432;-93
2021/05/30 12:39:06;;;;;;;1.58;1.48;;;24.10;34.70;;;;;;4973133;28;20055;-91
2021/05/30 12:41:34;;;;;;;1.52;1.30;;;24.30;34.70;;;;;;4973053;28;20018;-91
2021/05/30 12:44:08;;;;;;;2.42;1.50;;;24.80;34.50;;;;;;4973543;28;20126;-90
2021/05/30 12:46:37;;;;;;;1.75;1.10;;;24.90;32.60;;;;;;4972137;28;20525;-90
2021/05/30 12:49:11;;;;;;;1.05;1.00;;;24.80;32.80;;;;;;4973248;28;20074;-91
2021/05/30 12:51:37;;;;;;;1.92;1.30;;;24.90;32.60;;;;;;4973276;28;20027;-91
2021/05/30 12:54:17;;;;;;;2.30;1.73;;;24.90;31.50;;;;;;4972602;28;20015;-91